Time;durP1;ratioP1;P1;durP2;ratioP2;P2;SDS_P1;SDS_P2;PMS_P1;PMS_P2;Temp;Humidity;BMP_temperature;BMP_pressure;BME280_temperature;BME280_humidity;BME280_pressure;Samples;Min_cycle;Max_cycle;Signal;HPM_P1;HPM_P2
2023/04/19 00:02:12;;;;;;;13.82;9.70;;;;;;;10.11;94.15;102017.69;7745332;18;20434;-73
2023/04/19 00:04:38;;;;;;;11.68;8.88;;;;;;;10.11;94.40;102022.94;7786316;18;20089;-72
2023/04/19 00:07:05;;;;;;;10.50;7.78;;;;;;;10.12;94.01;102016.78;7747025;18;20019;-72
2023/04/19 00:09:32;;;;;;;10.25;8.23;;;;;;;10.11;94.44;102006.34;7786915;18;20009;-73
2023/04/19 00:12:01;;;;;;;10.60;9.50;;;;;;;9.90;94.84;101981.56;7787664;18;20410;-72
2023/04/19 00:14:27;;;;;;;12.70;8.55;;;;;;;10.09;95.16;102013.41;7744393;18;20320;-73
2023/04/19 00:16:54;;;;;;;13.88;9.40;;;;;;;9.72;94.49;101943.63;7788639;18;20372;-72
2023/04/19 00:19:21;;;;;;;9.85;8.63;;;;;;;9.74;94.70;101955.81;7786734;18;20156;-72
2023/04/19 00:21:48;;;;;;;10.98;9.15;;;;;;;10.09;95.11;102016.88;7786957;18;20009;-73
2023/04/19 00:24:15;;;;;;;10.57;8.90;;;;;;;10.11;95.11;102006.34;7784976;18;20072;-73
2023/04/19 00:26:41;;;;;;;18.13;9.10;;;;;;;9.89;95.47;101987.75;7788339;18;20112;-72
2023/04/19 00:29:08;;;;;;;10.30;8.38;;;;;;;9.68;95.03;101931.53;7787405;18;20427;-73
2023/04/19 00:31:34;;;;;;;9.82;8.50;;;;;;;7.78;95.38;101629.56;7791151;18;20169;-72
2023/04/19 00:34:01;;;;;;;10.07;8.95;;;;;;;10.10;96.23;102020.34;7789302;18;20010;-74
2023/04/19 00:36:28;;;;;;;10.25;8.18;;;;;;;10.10;96.17;102010.72;7786873;18;20018;-74
2023/04/19 00:38:54;;;;;;;13.57;9.00;;;;;;;10.10;96.55;102009.84;7787068;18;20660;-74
2023/04/19 00:41:21;;;;;;;14.73;9.65;;;;;;;10.08;97.22;102022.16;7787335;18;20068;-75
2023/04/19 00:43:47;;;;;;;12.90;9.20;;;;;;;10.07;97.28;102026.53;7787113;18;20260;-74
2023/04/19 00:46:14;;;;;;;11.02;9.00;;;;;;;10.06;97.07;102018.72;7788623;18;20403;-72
2023/04/19 00:48:41;;;;;;;14.00;9.45;;;;;;;9.98;97.74;102011.06;7785983;18;20010;-72
2023/04/19 00:51:09;;;;;;;11.60;9.20;;;;;;;9.79;97.68;101982.75;7787959;18;20028;-72
2023/04/19 00:53:37;;;;;;;9.65;8.48;;;;;;;10.06;97.17;102019.56;7787387;18;20025;-72
2023/04/19 00:56:04;;;;;;;10.05;8.70;;;;;;;10.07;97.29;102005.56;7746256;18;20592;-73
2023/04/19 00:58:31;;;;;;;12.15;8.98;;;;;;;9.73;97.13;101967.19;7787643;18;20210;-72
2023/04/19 01:00:58;;;;;;;10.55;7.57;;;;;;;10.05;97.37;102011.75;7787577;18;20013;-72
2023/04/19 01:03:28;;;;;;;12.13;10.13;;;;;;;10.04;97.46;102010.03;7787165;18;20515;-72
2023/04/19 01:05:56;;;;;;;10.32;8.73;;;;;;;10.01;98.26;102012.75;7787535;18;20368;-72
2023/04/19 01:08:23;;;;;;;9.20;8.13;;;;;;;10.00;98.68;102011.88;7745696;18;20006;-72
2023/04/19 01:10:49;;;;;;;11.13;8.35;;;;;;;9.99;99.28;102032.00;7786441;18;20316;-72
2023/04/19 01:13:15;;;;;;;10.35;9.35;;;;;;;9.97;99.27;102012.84;7745797;18;20018;-74
2023/04/19 01:15:42;;;;;;;9.20;8.30;;;;;;;9.97;99.30;102012.84;7788566;18;20065;-74
2023/04/19 01:18:10;;;;;;;12.68;9.63;;;;;;;9.97;99.80;102014.59;7787481;18;20053;-72
2023/04/19 01:20:36;;;;;;;9.98;8.75;;;;;;;9.93;100.00;102021.69;7785349;18;20339;-73
2023/04/19 01:23:03;;;;;;;9.82;8.35;;;;;;;9.90;100.00;102019.16;7789128;18;20001;-72
2023/04/19 01:25:29;;;;;;;14.43;10.13;;;;;;;9.92;100.00;102011.25;7786982;18;20483;-72
2023/04/19 01:27:56;;;;;;;11.05;8.18;;;;;;;9.90;100.00;102013.03;7745969;18;20014;-73
2023/04/19 01:30:22;;;;;;;9.35;8.27;;;;;;;9.89;100.00;102009.56;7786760;18;20084;-74
2023/04/19 01:32:49;;;;;;;15.65;9.38;;;;;;;9.91;100.00;102013.00;7746122;18;20384;-72
2023/04/19 01:35:15;;;;;;;11.50;9.30;;;;;;;9.92;100.00;102006.00;7787667;18;20019;-74
2023/04/19 01:37:42;;;;;;;13.48;9.63;;;;;;;9.92;100.00;102006.88;7784648;18;20002;-72
2023/04/19 01:40:08;;;;;;;14.35;9.13;;;;;;;9.90;100.00;102013.03;7786216;18;20480;-72
2023/04/19 01:42:35;;;;;;;10.98;9.02;;;;;;;9.91;100.00;102012.16;7787539;18;20289;-72
2023/04/19 01:45:02;;;;;;;17.88;9.80;;;;;;;9.90;100.00;102008.69;7785657;18;19994;-72
2023/04/19 01:47:28;;;;;;;12.20;9.20;;;;;;;9.91;100.00;102014.78;7786729;18;20313;-72
2023/04/19 01:49:55;;;;;;;14.48;9.35;;;;;;;9.05;100.00;101873.88;7785845;18;19993;-72
2023/04/19 01:52:21;;;;;;;10.27;8.75;;;;;;;9.89;100.00;102006.94;7786532;18;20386;-72
2023/04/19 01:54:48;;;;;;;13.38;8.85;;;;;;;9.51;100.00;101947.72;7785785;18;20368;-74
2023/04/19 01:57:15;;;;;;;10.75;8.63;;;;;;;8.88;100.00;101845.53;7786957;18;20077;-72
2023/04/19 01:59:42;;;;;;;10.90;8.77;;;;;;;9.89;100.00;102004.31;7744232;18;19998;-72
2023/04/19 02:02:08;;;;;;;13.10;9.07;;;;;;;9.85;100.00;102012.34;7786672;18;20333;-71
2023/04/19 02:04:35;;;;;;;10.48;7.82;;;;;;;9.83;100.00;102009.75;7785508;18;20171;-72
2023/04/19 02:07:01;;;;;;;9.45;7.85;;;;;;;9.81;100.00;102002.84;7786382;18;20252;-74
2023/04/19 02:09:28;;;;;;;10.10;8.85;;;;;;;9.79;100.00;102000.25;7785784;18;20176;-74
2023/04/19 02:11:54;;;;;;;10.45;9.20;;;;;;;9.58;100.00;101976.34;7784774;18;20634;-71
2023/04/19 02:14:21;;;;;;;11.48;8.85;;;;;;;9.62;100.00;101997.22;7784450;18;20005;-75
2023/04/19 02:16:47;;;;;;;11.93;8.60;;;;;;;9.54;100.00;102006.16;7785234;18;19997;-72
2023/04/19 02:19:14;;;;;;;12.75;9.13;;;;;;;9.51;100.00;102008.00;7783891;18;20158;-72
2023/04/19 02:21:40;;;;;;;13.88;8.98;;;;;;;9.05;100.00;101925.41;7785478;18;20121;-72
2023/04/19 02:24:07;;;;;;;13.93;9.75;;;;;;;9.57;100.00;102011.31;7785435;18;20441;-72
2023/04/19 02:26:33;;;;;;;9.18;8.10;;;;;;;9.59;100.00;102016.53;7786012;18;20347;-72
2023/04/19 02:28:59;;;;;;;11.70;8.60;;;;;;;9.55;100.00;102014.88;7786035;18;20058;-72
2023/04/19 02:31:26;;;;;;;17.17;8.80;;;;;;;8.90;100.00;101900.44;7744433;18;20014;-72
2023/04/19 02:33:52;;;;;;;11.55;9.75;;;;;;;9.61;100.00;102006.84;7786108;18;20001;-72
2023/04/19 02:36:19;;;;;;;11.32;10.00;;;;;;;9.70;100.00;102016.22;7787087;18;20439;-73
2023/04/19 02:38:45;;;;;;;13.13;9.35;;;;;;;9.69;100.00;102022.38;7782148;18;20034;-74
2023/04/19 02:41:14;;;;;;;13.13;9.18;;;;;;;9.68;100.00;102018.03;7785508;18;20009;-74
2023/04/19 02:43:41;;;;;;;9.65;8.45;;;;;;;9.71;100.00;102016.19;7743599;18;20006;-74
2023/04/19 02:46:07;;;;;;;11.10;8.68;;;;;;;9.75;100.00;102022.22;7785378;18;20014;-73
2023/04/19 02:48:33;;;;;;;9.18;8.20;;;;;;;9.76;100.00;102014.31;7785836;18;20209;-73
2023/04/19 02:51:00;;;;;;;10.88;9.07;;;;;;;9.75;100.00;102016.97;7786195;18;20171;-73
2023/04/19 02:53:27;;;;;;;12.30;9.98;;;;;;;9.76;100.00;102016.03;7784656;18;20062;-74
2023/04/19 02:55:53;;;;;;;14.70;8.63;;;;;;;9.36;100.00;101952.50;7787079;18;19998;-74
2023/04/19 02:58:20;;;;;;;12.38;8.73;;;;;;;9.76;100.00;102016.94;7787766;18;20332;-73
2023/04/19 03:00:46;;;;;;;10.55;8.15;;;;;;;9.81;100.00;102022.03;7789830;18;20089;-72
2023/04/19 03:03:12;;;;;;;12.32;8.65;;;;;;;8.95;100.00;101869.78;7747104;18;20376;-74
2023/04/19 03:05:39;;;;;;;11.50;8.32;;;;;;;9.78;100.00;102022.09;7789980;18;20014;-75
2023/04/19 03:08:05;;;;;;;12.13;8.75;;;;;;;9.78;100.00;102019.47;7745864;18;20489;-75
2023/04/19 03:10:32;;;;;;;11.23;9.90;;;;;;;9.76;100.00;102021.28;7743435;18;20355;-74
2023/04/19 03:12:58;;;;;;;9.95;8.63;;;;;;;8.44;100.00;101794.34;7783998;18;20022;-74
2023/04/19 03:15:25;;;;;;;11.35;8.38;;;;;;;9.78;100.00;102019.47;7785525;18;20107;-74
2023/04/19 03:17:51;;;;;;;11.93;9.50;;;;;;;9.51;100.00;101972.16;7784251;18;20232;-74
2023/04/19 03:20:19;;;;;;;10.82;8.23;;;;;;;9.77;100.00;102017.78;7742723;18;20023;-71
2023/04/19 03:22:46;;;;;;;17.75;8.93;;;;;;;9.78;100.00;102016.88;7785194;18;20002;-72
2023/04/19 03:25:12;;;;;;;8.57;7.80;;;;;;;9.76;100.00;102021.28;7744915;18;20115;-73
2023/04/19 03:27:39;;;;;;;11.00;8.70;;;;;;;8.03;100.00;101730.84;7785492;18;19994;-71
2023/04/19 03:30:06;;;;;;;15.00;9.07;;;;;;;9.32;100.00;101934.25;7786032;18;19998;-72
2023/04/19 03:32:33;;;;;;;11.05;8.70;;;;;;;9.76;100.00;102006.44;7784755;18;20009;-71
2023/04/19 03:34:59;;;;;;;11.13;8.93;;;;;;;9.58;100.00;101978.97;7785865;18;20399;-72
2023/04/19 03:37:26;;;;;;;10.93;8.95;;;;;;;9.68;100.00;102002.28;7787220;18;20065;-73
2023/04/19 03:39:52;;;;;;;11.82;7.82;;;;;;;9.75;100.00;102009.94;7782631;18;20048;-74
2023/04/19 03:42:18;;;;;;;11.93;9.80;;;;;;;9.74;100.00;102005.63;7786169;18;20430;-72
2023/04/19 03:44:45;;;;;;;10.57;8.32;;;;;;;9.71;100.00;101989.13;7786047;18;20586;-72
2023/04/19 03:47:11;;;;;;;12.20;10.10;;;;;;;9.75;100.00;102004.72;7785270;18;20214;-71
2023/04/19 03:49:37;;;;;;;14.65;9.35;;;;;;;9.75;100.00;101999.47;7783999;18;19998;-72
2023/04/19 03:52:04;;;;;;;15.73;8.90;;;;;;;9.74;100.00;102010.00;7784730;18;20069;-73
2023/04/19 03:54:30;;;;;;;15.55;9.85;;;;;;;9.72;100.00;101993.44;7784460;18;20005;-73
2023/04/19 03:56:57;;;;;;;12.30;8.52;;;;;;;9.65;100.00;101989.28;7745532;18;20072;-72
2023/04/19 03:59:23;;;;;;;8.93;8.02;;;;;;;9.70;100.00;101998.75;7787414;18;20427;-72
2023/04/19 04:01:50;;;;;;;10.02;8.60;;;;;;;9.35;100.00;101945.53;7787999;18;20012;-74
2023/04/19 04:04:16;;;;;;;15.20;9.88;;;;;;;9.68;100.00;101997.06;7787059;18;20391;-71
2023/04/19 04:06:44;;;;;;;9.25;7.72;;;;;;;9.48;100.00;101977.50;7788086;18;20344;-76
2023/04/19 04:09:10;;;;;;;23.27;9.05;;;;;;;9.13;100.00;101912.97;7786486;18;20493;-71
2023/04/19 04:11:39;;;;;;;10.35;8.60;;;;;;;9.67;100.00;101996.19;7787570;18;20065;-75
2023/04/19 04:14:06;;;;;;;11.00;8.95;;;;;;;9.61;100.00;101990.28;7786795;18;20209;-75
2023/04/19 04:16:32;;;;;;;11.70;8.48;;;;;;;9.65;100.00;101997.16;7787789;18;20069;-73
2023/04/19 04:18:58;;;;;;;12.85;8.35;;;;;;;9.65;100.00;101999.78;7785974;18;20001;-73
2023/04/19 04:21:26;;;;;;;8.70;7.45;;;;;;;9.66;100.00;101996.22;7786264;18;20002;-74
2023/04/19 04:23:52;;;;;;;9.95;7.90;;;;;;;9.38;100.00;101955.94;7745633;18;20059;-73
2023/04/19 04:26:19;;;;;;;13.60;7.97;;;;;;;9.65;100.00;101994.53;7787106;18;20335;-73
2023/04/19 04:28:45;;;;;;;10.23;7.63;;;;;;;9.67;100.00;101996.19;7787288;18;20436;-74
2023/04/19 04:31:11;;;;;;;11.27;8.88;;;;;;;9.30;100.00;101925.59;7748641;18;20065;-72
2023/04/19 04:33:38;;;;;;;10.55;8.88;;;;;;;9.21;100.00;101915.38;7786812;18;20065;-72
2023/04/19 04:36:05;;;;;;;11.07;7.85;;;;;;;9.60;100.00;101989.41;7787531;18;20009;-74
2023/04/19 04:38:35;;;;;;;8.15;7.38;;;;;;;9.40;100.00;101958.50;7788040;18;20198;-74
2023/04/19 04:41:02;;;;;;;7.85;7.07;;;;;;;9.10;100.00;101913.91;7744013;18;20009;-74
2023/04/19 04:43:28;;;;;;;11.45;7.45;;;;;;;9.68;100.00;101999.69;7786936;18;20069;-73
2023/04/19 04:45:56;;;;;;;12.88;8.15;;;;;;;9.37;100.00;101953.34;7787864;18;20318;-74
2023/04/19 04:48:23;;;;;;;7.88;7.07;;;;;;;9.62;100.00;101981.50;7745168;18;20056;-73
2023/04/19 04:50:50;;;;;;;7.93;6.82;;;;;;;9.67;100.00;101992.72;7788756;18;20009;-74
2023/04/19 04:53:16;;;;;;;9.40;7.63;;;;;;;9.69;100.00;101988.31;7786190;18;20425;-73
2023/04/19 04:55:42;;;;;;;7.50;6.70;;;;;;;9.19;100.00;101910.16;7746731;18;20004;-71
2023/04/19 04:58:09;;;;;;;8.93;7.47;;;;;;;9.23;100.00;101905.72;7746295;18;20000;-71
2023/04/19 05:00:35;;;;;;;8.65;7.55;;;;;;;9.39;100.00;101936.69;7787378;18;20066;-72
2023/04/19 05:03:02;;;;;;;8.52;7.15;;;;;;;9.69;100.00;101978.66;7786979;18;20058;-72
2023/04/19 05:05:29;;;;;;;8.30;7.25;;;;;;;9.68;100.00;101982.22;7745484;18;20403;-71
2023/04/19 05:07:55;;;;;;;7.97;6.75;;;;;;;9.49;100.00;101950.38;7789155;18;20205;-71
2023/04/19 05:10:22;;;;;;;8.07;6.70;;;;;;;9.40;100.00;101934.91;7787331;18;20012;-70
2023/04/19 05:12:48;;;;;;;7.28;6.55;;;;;;;9.59;100.00;101951.84;7788084;18;20010;-73
2023/04/19 05:15:14;;;;;;;10.13;7.10;;;;;;;9.66;100.00;101964.78;7788878;18;20009;-71
2023/04/19 05:17:41;;;;;;;9.00;6.57;;;;;;;9.67;100.00;101963.91;7787940;18;20057;-70
2023/04/19 05:20:08;;;;;;;7.78;7.00;;;;;;;9.68;100.00;101947.25;7787775;18;20387;-71
2023/04/19 05:22:35;;;;;;;12.90;6.75;;;;;;;9.66;100.00;101936.84;7787250;18;20170;-71
2023/04/19 05:25:02;;;;;;;6.95;6.07;;;;;;;9.66;100.00;101925.47;7787481;18;19998;-71
2023/04/19 05:27:28;;;;;;;7.38;6.00;;;;;;;9.43;99.42;101882.44;7786679;18;20468;-71
2023/04/19 05:29:54;;;;;;;6.50;5.97;;;;;;;9.63;99.56;101915.09;7786388;18;20008;-73
2023/04/19 05:32:21;;;;;;;9.38;6.28;;;;;;;9.63;99.35;101915.09;7787310;18;19998;-71
2023/04/19 05:34:48;;;;;;;8.50;6.93;;;;;;;9.24;98.02;101847.16;7785257;18;20005;-71
2023/04/19 05:37:14;;;;;;;7.25;6.05;;;;;;;9.62;98.00;101916.81;7788341;18;20201;-72
2023/04/19 05:39:41;;;;;;;7.03;5.95;;;;;;;9.66;96.17;101904.50;7785862;18;20082;-69
2023/04/19 05:42:09;;;;;;;7.93;5.63;;;;;;;9.27;95.52;101832.22;7744165;18;20258;-71
2023/04/19 05:44:36;;;;;;;7.10;6.40;;;;;;;9.63;95.63;101910.69;7785675;18;20055;-70
2023/04/19 05:47:02;;;;;;;8.82;5.97;;;;;;;9.58;95.45;101896.84;7786646;18;20430;-72
2023/04/19 05:49:29;;;;;;;6.45;5.95;;;;;;;9.58;93.84;101902.97;7786437;18;20419;-69
2023/04/19 05:51:55;;;;;;;6.10;5.57;;;;;;;9.58;91.50;101882.00;7788000;18;20246;-70
2023/04/19 05:54:22;;;;;;;5.45;5.05;;;;;;;9.24;91.04;101810.50;7787027;18;20072;-71
2023/04/19 05:56:48;;;;;;;6.30;5.63;;;;;;;9.57;89.44;101864.53;7786823;18;20025;-71
2023/04/19 05:59:15;;;;;;;10.10;5.45;;;;;;;9.58;89.43;101868.03;7786635;18;20182;-69
2023/04/19 06:01:41;;;;;;;6.05;5.45;;;;;;;9.29;88.26;101808.63;7786171;18;20356;-71
2023/04/19 06:04:08;;;;;;;5.72;5.22;;;;;;;9.59;87.26;101852.25;7785874;18;20822;-69
2023/04/19 06:06:36;;;;;;;6.43;5.88;;;;;;;9.57;86.97;101843.59;7745718;18;20078;-70
2023/04/19 06:09:03;;;;;;;7.97;5.95;;;;;;;9.27;86.09;101786.84;7785772;18;20066;-70
2023/04/19 06:11:30;;;;;;;5.88;5.38;;;;;;;9.48;85.24;101824.66;7785842;18;20001;-69
2023/04/19 06:14:09;;;;;;;6.85;6.13;;;;;;;9.54;85.89;101824.47;7786848;18;20082;-70
2023/04/19 06:16:35;;;;;;;7.28;6.05;;;;;;;9.66;86.19;101836.34;7785985;18;20359;-69
2023/04/19 06:19:02;;;;;;;8.18;6.25;;;;;;;9.72;86.36;101836.16;7786144;18;20052;-70
2023/04/19 06:21:31;;;;;;;7.20;5.63;;;;;;;9.78;86.13;101836.84;7784563;18;19998;-71
2023/04/19 06:23:58;;;;;;;6.78;5.70;;;;;;;9.81;86.46;101840.28;7785909;18;20061;-70
2023/04/19 06:26:24;;;;;;;6.25;5.68;;;;;;;9.90;85.76;101827.75;7744369;18;20056;-72
2023/04/19 06:28:51;;;;;;;6.05;5.57;;;;;;;9.94;84.13;101818.88;7785582;18;20013;-71
2023/04/19 06:31:17;;;;;;;6.10;5.43;;;;;;;9.94;82.10;101789.16;7786038;18;20339;-72
2023/04/19 06:33:44;;;;;;;5.63;5.15;;;;;;;9.98;81.58;101789.03;7786235;18;20500;-70
2023/04/19 06:36:11;;;;;;;5.90;5.40;;;;;;;9.57;80.72;101690.72;7786315;18;20411;-70
2023/04/19 06:38:40;;;;;;;6.63;6.13;;;;;;;10.09;80.93;101775.56;7786121;18;20234;-70
2023/04/19 06:41:08;;;;;;;7.68;6.22;;;;;;;10.17;78.97;101770.06;7784776;18;20466;-70
2023/04/19 06:43:34;;;;;;;6.00;5.28;;;;;;;10.23;79.40;101750.63;7744975;18;20005;-70
2023/04/19 06:46:02;;;;;;;6.30;5.80;;;;;;;10.24;78.14;101741.84;7744891;18;19998;-72
2023/04/19 06:48:28;;;;;;;6.60;5.97;;;;;;;10.13;77.90;101721.25;7785822;18;20037;-71
2023/04/19 06:50:55;;;;;;;6.47;5.97;;;;;;;10.16;76.07;101700.13;7786682;18;19998;-71
2023/04/19 06:53:22;;;;;;;5.90;5.47;;;;;;;10.21;74.58;101686.88;7785691;18;20045;-70
2023/04/19 06:55:58;;;;;;;6.13;5.55;;;;;;;9.52;73.41;101559.88;7786100;18;20341;-71
2023/04/19 06:58:24;;;;;;;8.02;6.07;;;;;;;10.19;73.03;101660.69;7786618;18;20029;-70
2023/04/19 07:00:50;;;;;;;5.85;5.35;;;;;;;9.75;72.58;101572.16;7785251;18;20351;-72
2023/04/19 07:03:17;;;;;;;6.38;5.78;;;;;;;10.57;72.88;101679.50;7785827;18;19994;-71
2023/04/19 07:05:43;;;;;;;7.82;6.32;;;;;;;10.44;71.87;101649.34;7786330;18;20004;-72
2023/04/19 07:08:10;;;;;;;6.35;5.82;;;;;;;10.69;71.95;101692.16;7784507;18;20262;-70
2023/04/19 07:10:36;;;;;;;8.50;5.97;;;;;;;10.12;71.07;101562.13;7786880;18;20088;-71
2023/04/19 07:13:02;;;;;;;7.32;6.72;;;;;;;10.66;72.08;101647.63;7784624;18;20002;-71
2023/04/19 07:15:29;;;;;;;6.97;6.15;;;;;;;10.60;70.85;101626.00;7786197;18;20070;-71
2023/04/19 07:17:55;;;;;;;6.50;5.88;;;;;;;10.91;71.29;101652.81;7783895;18;20081;-72
2023/04/19 07:20:22;;;;;;;6.35;5.85;;;;;;;10.41;70.43;101541.88;7783198;18;20010;-70
2023/04/19 07:22:48;;;;;;;5.68;5.20;;;;;;;10.69;68.99;101553.03;7744261;18;20438;-73
2023/04/19 07:25:15;;;;;;;7.18;6.38;;;;;;;10.94;68.02;101573.06;7785526;18;20238;-72
2023/04/19 07:27:41;;;;;;;6.47;5.80;;;;;;;10.83;68.34;101570.03;7786178;18;20021;-73
2023/04/19 07:30:08;;;;;;;8.07;6.63;;;;;;;10.92;67.62;101567.00;7744375;18;20014;-73
2023/04/19 07:32:35;;;;;;;6.45;5.82;;;;;;;10.82;66.99;101534.16;7785723;18;20463;-72
2023/04/19 07:35:02;;;;;;;7.88;6.80;;;;;;;10.97;67.85;101580.84;7787205;18;20057;-69
2023/04/19 07:37:29;;;;;;;7.32;6.60;;;;;;;10.86;67.59;101556.75;7787722;18;20070;-73
2023/04/19 07:39:55;;;;;;;7.07;6.18;;;;;;;10.83;67.33;101538.50;7786972;18;19990;-70
2023/04/19 07:42:23;;;;;;;7.68;7.07;;;;;;;10.77;66.47;101508.94;7785410;18;20302;-70
2023/04/19 07:44:49;;;;;;;7.07;6.18;;;;;;;10.89;65.96;101519.88;7787576;18;20054;-73
2023/04/19 07:47:16;;;;;;;28.35;26.45;;;;;;;9.97;66.44;101375.59;7693749;18;20601;-70
2023/04/19 07:49:43;;;;;;;7.22;6.18;;;;;;;11.17;66.76;101580.88;7590380;18;19993;-69
2023/04/19 07:52:09;;;;;;;6.43;5.93;;;;;;;11.46;66.32;101560.41;7745810;18;20216;-71
2023/04/19 07:54:38;;;;;;;10.75;6.75;;;;;;;11.37;64.40;101501.22;7787913;18;20025;-70
2023/04/19 07:57:04;;;;;;;6.63;6.03;;;;;;;11.33;65.45;101518.03;7788593;18;20006;-72
2023/04/19 07:59:32;;;;;;;6.90;6.20;;;;;;;11.46;64.33;101486.81;7746101;18;20022;-71
2023/04/19 08:01:58;;;;;;;6.40;5.85;;;;;;;11.48;64.04;101490.22;7787349;18;20030;-72
2023/04/19 08:04:25;;;;;;;9.15;6.10;;;;;;;11.47;62.90;101449.13;7786329;18;20002;-70
2023/04/19 08:06:53;;;;;;;5.97;5.50;;;;;;;11.54;62.59;101426.03;7788701;18;19998;-71
2023/04/19 08:09:20;;;;;;;6.72;5.80;;;;;;;11.26;61.74;101373.84;7745947;18;20018;-72
2023/04/19 08:11:46;;;;;;;7.72;6.50;;;;;;;11.52;61.80;101412.94;7788533;18;20009;-70
2023/04/19 08:14:13;;;;;;;7.35;6.63;;;;;;;12.01;61.20;101419.56;7787131;18;19998;-71
2023/04/19 08:16:56;;;;;;;7.07;6.38;;;;;;;11.93;59.90;101355.03;7788267;18;20221;-71
2023/04/19 08:19:42;;;;;;;7.50;5.45;;;;;;;11.84;59.39;101354.56;7787440;18;20415;-70
2023/04/19 08:22:09;;;;;;;8.32;6.45;;;;;;;11.87;60.63;101372.84;7786968;18;20056;-71
2023/04/19 08:24:35;;;;;;;6.88;6.28;;;;;;;12.22;60.37;101392.22;7785894;18;20013;-71
2023/04/19 08:27:02;;;;;;;5.75;5.30;;;;;;;12.38;61.26;101450.25;7788802;18;20006;-70
2023/04/19 08:29:28;;;;;;;6.95;6.05;;;;;;;11.92;57.47;101240.19;7786974;18;20010;-72
2023/04/19 08:31:55;;;;;;;11.57;6.20;;;;;;;12.22;56.87;101270.34;7788763;18;20057;-71
2023/04/19 08:34:21;;;;;;;6.43;5.82;;;;;;;12.23;56.83;101293.97;7787976;18;20001;-71
2023/04/19 08:36:48;;;;;;;8.73;6.07;;;;;;;12.14;56.46;101220.72;7787112;18;20478;-71
2023/04/19 08:39:30;;;;;;;6.00;5.50;;;;;;;12.13;55.30;101198.00;7749589;18;20002;-70
2023/04/19 08:42:09;;;;;;;6.45;5.80;;;;;;;12.01;54.67;101177.53;7789693;18;20062;-71
2023/04/19 08:44:56;;;;;;;5.28;4.93;;;;;;;12.15;55.41;101232.97;7784910;18;20056;-71
2023/04/19 08:47:43;;;;;;;5.97;5.40;;;;;;;12.00;56.47;101208.25;7787355;18;20137;-70
2023/04/19 08:50:28;;;;;;;6.55;6.00;;;;;;;12.36;56.40;101244.16;7788288;18;20066;-72
2023/04/19 08:52:59;;;;;;;5.65;5.25;;;;;;;12.30;54.24;101181.31;7787236;18;20288;-72
2023/04/19 08:55:42;;;;;;;6.18;5.57;;;;;;;12.00;53.35;101108.31;7787245;18;20383;-70
2023/04/19 08:58:31;;;;;;;6.65;6.13;;;;;;;12.12;54.77;101175.22;7787374;18;20009;-70
2023/04/19 09:01:18;;;;;;;6.68;6.07;;;;;;;12.08;53.87;101136.84;7787320;18;20028;-72
2023/04/19 09:04:01;;;;;;;6.15;5.60;;;;;;;12.21;53.54;101147.56;7787729;18;19994;-72
2023/04/19 09:06:47;;;;;;;8.15;5.60;;;;;;;12.38;53.66;101201.03;7788673;18;20021;-71
2023/04/19 09:09:18;;;;;;;6.05;5.60;;;;;;;12.51;53.32;101219.69;7787735;18;19993;-70
2023/04/19 09:11:47;;;;;;;6.72;6.20;;;;;;;12.32;52.61;101167.16;7747566;18;20006;-72
2023/04/19 09:14:16;;;;;;;6.15;5.65;;;;;;;12.78;53.05;101249.00;7787597;18;20280;-69
2023/04/19 09:16:43;;;;;;;6.43;5.93;;;;;;;12.65;52.15;101210.22;7787580;18;19994;-71
2023/04/19 09:19:15;;;;;;;5.90;5.50;;;;;;;12.35;51.79;101169.63;7785906;18;20006;-70
2023/04/19 09:21:52;;;;;;;5.72;5.25;;;;;;;12.53;52.45;101217.00;7786004;18;20057;-69
2023/04/19 09:24:36;;;;;;;5.60;5.20;;;;;;;12.10;51.06;101111.31;7786699;18;20014;-71
2023/04/19 09:27:30;;;;;;;6.22;5.72;;;;;;;12.65;53.12;101278.69;7787982;18;20070;-71
2023/04/19 09:29:59;;;;;;;5.78;5.38;;;;;;;12.32;51.91;101176.84;7787468;18;20052;-71
2023/04/19 09:32:27;;;;;;;5.45;5.05;;;;;;;12.34;50.59;101170.53;7787770;18;20001;-71
2023/04/19 09:34:56;;;;;;;5.72;5.32;;;;;;;11.89;51.06;101164.09;7745689;18;20505;-71
2023/04/19 09:37:23;;;;;;;5.90;5.50;;;;;;;12.40;52.26;101263.31;7787308;18;20002;-71
2023/04/19 09:40:23;;;;;;;6.20;5.63;;;;;;;12.22;51.61;101207.19;7789160;18;19994;-70
2023/04/19 09:42:49;;;;;;;5.32;5.03;;;;;;;12.31;51.58;101233.03;7787582;18;19998;-69
2023/04/19 09:45:19;;;;;;;5.63;5.18;;;;;;;12.43;51.41;101256.09;7785827;18;20251;-70
2023/04/19 09:48:02;;;;;;;5.63;5.20;;;;;;;12.46;49.52;101199.81;7787256;18;20121;-70
2023/04/19 09:50:29;;;;;;;6.03;5.20;;;;;;;12.11;50.22;101178.81;7787388;18;19998;-70
2023/04/19 09:52:58;;;;;;;5.72;5.32;;;;;;;12.51;51.06;101268.88;7787331;18;20028;-69
2023/04/19 09:55:26;;;;;;;5.57;5.18;;;;;;;12.25;49.59;101176.31;7786685;18;20363;-69
2023/04/19 09:57:55;;;;;;;5.47;5.07;;;;;;;12.54;49.90;101206.38;7788904;18;20399;-71
2023/04/19 10:00:22;;;;;;;5.47;5.13;;;;;;;12.71;49.40;101231.81;7788244;18;20017;-69
2023/04/19 10:02:56;;;;;;;5.70;5.20;;;;;;;12.48;48.91;101192.69;7786851;18;20057;-69
2023/04/19 10:05:24;;;;;;;6.10;5.60;;;;;;;12.15;49.78;101201.38;7787776;18;20001;-71
2023/04/19 10:07:52;;;;;;;5.00;4.70;;;;;;;12.99;49.60;101322.59;7787257;18;20018;-71
2023/04/19 10:10:26;;;;;;;5.38;5.07;;;;;;;13.12;50.56;101347.34;7787219;18;19998;-72
2023/04/19 10:13:01;;;;;;;5.75;5.32;;;;;;;12.65;49.18;101228.66;7748432;18;20254;-72
2023/04/19 10:15:31;;;;;;;5.32;4.97;;;;;;;12.70;49.83;101287.19;7788003;18;20363;-72
2023/04/19 10:18:18;;;;;;;6.22;5.72;;;;;;;11.81;49.51;101139.06;7787392;18;20002;-70
2023/04/19 10:21:05;;;;;;;5.35;5.05;;;;;;;12.77;49.16;101236.78;7745031;18;20339;-69
2023/04/19 10:23:32;;;;;;;7.07;5.60;;;;;;;12.67;47.40;101197.81;7786714;18;20072;-70
2023/04/19 10:25:59;;;;;;;5.00;4.70;;;;;;;12.56;49.03;101251.88;7787801;18;20486;-68
2023/04/19 10:28:29;;;;;;;5.60;5.20;;;;;;;12.87;46.97;101209.91;7745075;18;20267;-71
2023/04/19 10:31:02;;;;;;;5.75;5.35;;;;;;;12.28;47.03;101097.19;7787816;18;20402;-69
2023/04/19 10:33:33;;;;;;;5.78;5.35;;;;;;;12.85;45.78;101169.66;7786817;18;20010;-72
2023/04/19 10:36:00;;;;;;;5.97;5.45;;;;;;;11.37;45.64;100944.09;7787742;18;20057;-70
2023/04/19 10:38:36;;;;;;;5.53;5.22;;;;;;;12.53;45.56;101130.13;7786592;18;20053;-72
2023/04/19 10:41:04;;;;;;;5.47;5.18;;;;;;;12.57;44.55;101114.06;7746144;18;20021;-71
2023/04/19 10:43:33;;;;;;;5.43;5.00;;;;;;;12.91;43.60;101128.03;7745866;18;20430;-72
2023/04/19 10:46:30;;;;;;;5.38;4.95;;;;;;;12.85;43.52;101123.09;7785176;18;20470;-72
2023/04/19 10:48:58;;;;;;;5.75;5.35;;;;;;;13.11;43.66;101161.19;7734665;18;20002;-70
2023/04/19 10:51:35;;;;;;;5.10;4.80;;;;;;;13.26;43.86;101195.53;7787179;18;20033;-70
2023/04/19 10:54:07;;;;;;;5.72;5.32;;;;;;;13.35;44.92;101303.16;7786177;18;20245;-69
2023/04/19 10:56:34;;;;;;;5.88;4.85;;;;;;;13.08;42.55;101127.09;7787118;18;20308;-71
2023/04/19 10:59:06;;;;;;;5.40;4.80;;;;;;;13.33;43.26;101228.53;7787982;18;20009;-70
2023/04/19 11:01:36;;;;;;;;;;;;;;;13.10;42.44;101137.53;7787910;18;20002;-70
2023/04/19 11:04:03;;;;;;;5.28;4.90;;;;;;;12.92;41.18;101094.63;7788452;18;19909;-72
2023/04/19 11:06:30;;;;;;;5.32;5.03;;;;;;;13.26;42.58;101206.91;7790538;18;19994;-69
2023/04/19 11:08:57;;;;;;;4.60;4.40;;;;;;;12.95;41.76;101103.22;7752387;18;20018;-72
2023/04/19 11:11:26;;;;;;;5.40;5.05;;;;;;;13.34;42.21;101178.38;7792921;18;20367;-71
2023/04/19 11:13:58;;;;;;;5.70;5.20;;;;;;;13.07;40.22;101064.78;7791091;18;20146;-71
2023/04/19 11:16:25;;;;;;;5.35;4.75;;;;;;;13.74;41.73;101289.53;7792297;18;20462;-70
2023/04/19 11:19:14;;;;;;;5.10;4.80;;;;;;;13.48;39.38;101105.56;7791801;18;20005;-70
2023/04/19 11:21:41;;;;;;;5.00;4.70;;;;;;;13.14;37.70;101021.31;7793579;18;20063;-70
2023/04/19 11:24:08;;;;;;;4.68;4.47;;;;;;;13.20;37.51;101049.13;7792021;18;20004;-70
2023/04/19 11:26:35;;;;;;;5.10;4.80;;;;;;;13.27;37.66;101078.59;7792423;18;20004;-70
2023/04/19 11:29:02;;;;;;;4.43;4.22;;;;;;;13.03;38.23;101042.19;7793017;18;20241;-71
2023/04/19 11:31:32;;;;;;;5.00;4.70;;;;;;;13.12;36.99;101033.75;7792289;18;20515;-71